Time;durP1;ratioP1;P1;durP2;ratioP2;P2;SDS_P1;SDS_P2;PMS_P1;PMS_P2;Temp;Humidity;BMP_temperature;BMP_pressure;BME280_temperature;BME280_humidity;BME280_pressure;Samples;Min_cycle;Max_cycle;Signal;HPM_P1;HPM_P2
2020/12/25 00:01:33;;;;;;;11.00;10.30;;;4.60;99.90;;;;;;5080849;28;20470;-77
2020/12/25 00:04:00;;;;;;;11.70;11.00;;;4.50;99.90;;;;;;5079271;28;20459;-80
2020/12/25 00:06:35;;;;;;;13.10;10.57;;;4.60;99.90;;;;;;5078910;28;20972;-78
2020/12/25 00:09:02;;;;;;;11.10;10.00;;;4.50;99.90;;;;;;5090621;28;20476;-78
2020/12/25 00:11:33;;;;;;;12.30;11.13;;;4.50;99.90;;;;;;5084674;28;21314;-79
2020/12/25 00:14:00;;;;;;;12.10;10.70;;;4.50;99.90;;;;;;5078873;28;20466;-77
2020/12/25 00:16:27;;;;;;;11.97;10.73;;;4.60;99.90;;;;;;5084413;28;20480;-78
2020/12/25 00:18:54;;;;;;;11.47;10.47;;;4.60;99.90;;;;;;5087146;28;20492;-76
2020/12/25 00:21:21;;;;;;;10.87;10.17;;;4.50;99.90;;;;;;5084202;28;20454;-78
2020/12/25 00:23:47;;;;;;;11.53;10.63;;;4.50;99.90;;;;;;5079253;28;20494;-75
2020/12/25 00:26:22;;;;;;;12.53;11.63;;;4.50;99.90;;;;;;5081803;28;20454;-79
2020/12/25 00:28:51;;;;;;;11.90;11.03;;;4.50;99.90;;;;;;5080565;28;20465;-79
2020/12/25 00:31:25;;;;;;;11.87;11.17;;;4.50;99.90;;;;;;5079908;28;20485;-78
2020/12/25 00:33:52;;;;;;;11.93;10.93;;;4.50;99.90;;;;;;5076301;28;21006;-81
2020/12/25 00:36:25;;;;;;;12.60;11.50;;;4.50;99.90;;;;;;5086869;28;20489;-77
2020/12/25 00:38:52;;;;;;;11.83;10.93;;;4.50;99.90;;;;;;5084441;28;20987;-77
2020/12/25 00:41:18;;;;;;;12.33;11.53;;;4.50;99.90;;;;;;5081413;28;20462;-76
2020/12/25 00:43:45;;;;;;;12.50;11.60;;;4.50;99.90;;;;;;5082825;28;20459;-76
2020/12/25 00:46:13;;;;;;;14.47;12.90;;;4.60;99.90;;;;;;5081842;28;20466;-77
2020/12/25 00:48:40;;;;;;;12.00;11.20;;;4.60;99.90;;;;;;5079977;28;20468;-81
2020/12/25 00:51:12;;;;;;;10.80;10.17;;;4.60;99.90;;;;;;5081178;28;20509;-80
2020/12/25 00:53:39;;;;;;;12.67;11.77;;;4.60;99.90;;;;;;5081179;28;20937;-80
2020/12/25 00:56:05;;;;;;;13.07;11.63;;;4.60;99.90;;;;;;5081465;28;20469;-77
2020/12/25 00:58:31;;;;;;;15.17;12.30;;;4.60;99.90;;;;;;5084799;28;20455;-76
2020/12/25 01:00:58;;;;;;;13.07;11.83;;;4.70;99.90;;;;;;5085558;28;21000;-77
2020/12/25 01:03:26;;;;;;;13.23;12.33;;;4.70;99.90;;;;;;5080848;28;20458;-81
2020/12/25 01:05:52;;;;;;;12.73;11.80;;;4.60;99.90;;;;;;5084466;28;20461;-79
2020/12/25 01:08:19;;;;;;;12.37;11.37;;;4.60;99.90;;;;;;5076656;28;20466;-79
2020/12/25 01:10:47;;;;;;;13.60;12.40;;;4.60;99.90;;;;;;5083127;28;20490;-77
2020/12/25 01:13:14;;;;;;;12.63;11.80;;;4.50;99.90;;;;;;5083755;28;20463;-80
2020/12/25 01:15:40;;;;;;;10.77;9.90;;;4.60;99.90;;;;;;5081490;28;20473;-79
2020/12/25 01:18:07;;;;;;;10.87;10.10;;;4.50;99.90;;;;;;5080489;28;20981;-77
2020/12/25 01:20:35;;;;;;;13.33;12.13;;;4.50;99.90;;;;;;5077856;28;20482;-79
2020/12/25 01:23:01;;;;;;;11.80;10.90;;;4.40;99.90;;;;;;5081645;28;20474;-77
2020/12/25 01:25:28;;;;;;;12.80;11.67;;;4.40;99.90;;;;;;5085790;28;20465;-78
2020/12/25 01:27:55;;;;;;;11.60;10.90;;;4.40;99.90;;;;;;5078932;28;20871;-75
2020/12/25 01:30:22;;;;;;;9.50;8.90;;;4.40;99.90;;;;;;5083448;28;20470;-77
2020/12/25 01:32:49;;;;;;;11.83;10.93;;;4.30;99.90;;;;;;5083923;28;20463;-80
2020/12/25 01:35:16;;;;;;;10.80;10.07;;;4.30;99.90;;;;;;5083996;28;20478;-80
2020/12/25 01:37:43;;;;;;;16.17;10.73;;;4.30;99.90;;;;;;5088918;28;20454;-78
2020/12/25 01:40:10;;;;;;;10.40;9.80;;;4.30;99.90;;;;;;5084033;28;20490;-76
2020/12/25 01:42:37;;;;;;;11.73;10.50;;;4.30;99.90;;;;;;5079630;28;20454;-79
2020/12/25 01:45:04;;;;;;;12.97;11.57;;;4.20;99.90;;;;;;5081322;28;20509;-77
2020/12/25 01:47:31;;;;;;;12.67;11.03;;;4.20;99.90;;;;;;5086544;28;20477;-80
2020/12/25 01:49:59;;;;;;;14.07;11.40;;;4.20;99.90;;;;;;5083043;28;20480;-78
2020/12/25 01:52:25;;;;;;;17.60;11.90;;;4.20;99.90;;;;;;5076805;28;21367;-75
2020/12/25 01:54:54;;;;;;;10.53;10.03;;;4.10;99.90;;;;;;5079332;28;20864;-78
2020/12/25 01:57:23;;;;;;;11.40;10.70;;;4.10;99.90;;;;;;5084516;28;20934;-77
2020/12/25 01:59:50;;;;;;;17.87;11.63;;;4.10;99.90;;;;;;5085762;28;20489;-75
2020/12/25 02:02:17;;;;;;;11.10;10.30;;;4.00;99.90;;;;;;5082586;28;20514;-75
2020/12/25 02:04:44;;;;;;;10.80;10.00;;;4.00;99.90;;;;;;5082029;28;20458;-78
2020/12/25 02:07:11;;;;;;;11.10;10.40;;;4.00;99.90;;;;;;5078836;28;21051;-76
2020/12/25 02:09:37;;;;;;;10.80;10.20;;;4.00;99.90;;;;;;5082789;28;20462;-78
2020/12/25 02:12:05;;;;;;;11.57;10.87;;;4.00;99.90;;;;;;5083197;28;20470;-77
2020/12/25 02:14:31;;;;;;;12.17;11.00;;;4.00;99.90;;;;;;5082277;28;20462;-77
2020/12/25 02:16:58;;;;;;;11.80;11.07;;;4.00;99.90;;;;;;5083807;28;20450;-78
2020/12/25 02:19:24;;;;;;;12.63;10.77;;;4.00;99.90;;;;;;5080064;28;20525;-76
2020/12/25 02:21:52;;;;;;;12.10;11.30;;;4.00;99.90;;;;;;5080442;28;20908;-79
2020/12/25 02:24:19;;;;;;;11.07;10.00;;;4.00;99.90;;;;;;5083384;28;20458;-80
2020/12/25 02:26:46;;;;;;;11.90;10.90;;;4.00;99.90;;;;;;5082824;28;20462;-77
2020/12/25 02:29:12;;;;;;;12.53;11.43;;;4.00;99.90;;;;;;5081745;28;20469;-78
2020/12/25 02:31:38;;;;;;;11.70;10.93;;;4.00;99.90;;;;;;5077536;28;20455;-80
2020/12/25 02:34:04;;;;;;;11.67;10.80;;;4.00;99.90;;;;;;5080398;28;20466;-74
2020/12/25 02:36:31;;;;;;;11.80;10.90;;;4.00;99.90;;;;;;5078946;28;20489;-78
2020/12/25 02:38:58;;;;;;;13.40;11.47;;;4.00;99.90;;;;;;5083539;28;20747;-80
2020/12/25 02:41:25;;;;;;;13.60;10.80;;;4.00;99.90;;;;;;5079609;28;20467;-81
2020/12/25 02:43:51;;;;;;;11.63;10.60;;;4.00;99.90;;;;;;5079982;28;20465;-78
2020/12/25 02:46:20;;;;;;;14.20;11.03;;;3.90;99.90;;;;;;5080129;28;20470;-79
2020/12/25 02:48:47;;;;;;;11.50;10.63;;;3.90;99.90;;;;;;5084830;28;20466;-77
2020/12/25 02:51:16;;;;;;;10.50;9.80;;;3.90;99.90;;;;;;5083047;28;21101;-80
2020/12/25 02:53:43;;;;;;;10.87;10.20;;;3.90;99.90;;;;;;5074866;28;20462;-78
2020/12/25 02:56:14;;;;;;;15.23;11.33;;;3.80;99.90;;;;;;5076591;28;20519;-79
2020/12/25 02:58:41;;;;;;;19.13;11.80;;;3.80;99.90;;;;;;5080333;28;20486;-77
2020/12/25 03:01:10;;;;;;;14.63;11.20;;;3.80;99.90;;;;;;5100564;28;20476;-79
2020/12/25 03:03:36;;;;;;;12.67;10.97;;;3.70;99.90;;;;;;5102955;28;20557;-75
2020/12/25 03:06:03;;;;;;;10.87;10.17;;;3.70;99.90;;;;;;5101203;28;20941;-77
2020/12/25 03:08:30;;;;;;;11.10;10.20;;;3.70;99.90;;;;;;5102803;28;20457;-77
2020/12/25 03:10:57;;;;;;;20.33;11.17;;;3.60;99.90;;;;;;5100236;28;20457;-80
2020/12/25 03:13:24;;;;;;;10.80;9.97;;;3.50;99.90;;;;;;5101429;28;20504;-79
2020/12/25 03:15:50;;;;;;;11.03;10.17;;;3.50;99.90;;;;;;5103360;28;20457;-76
2020/12/25 03:18:17;;;;;;;11.93;10.87;;;3.40;99.90;;;;;;5104044;28;20980;-79
2020/12/25 03:20:43;;;;;;;9.27;8.87;;;3.40;99.90;;;;;;5102240;28;20488;-79
2020/12/25 03:23:12;;;;;;;11.27;10.07;;;3.30;99.90;;;;;;5102333;28;20453;-76
2020/12/25 03:25:40;;;;;;;11.43;10.63;;;3.30;99.90;;;;;;5100746;28;21023;-77
2020/12/25 03:28:06;;;;;;;12.33;10.70;;;3.30;99.90;;;;;;5096957;28;20993;-80
2020/12/25 03:30:34;;;;;;;11.90;10.80;;;3.20;99.90;;;;;;5107263;28;20486;-79
2020/12/25 03:33:00;;;;;;;12.90;11.60;;;3.10;99.90;;;;;;5103672;28;20498;-77
2020/12/25 03:35:27;;;;;;;22.57;11.67;;;3.10;99.90;;;;;;5104197;28;21142;-77
2020/12/25 03:37:53;;;;;;;11.87;11.00;;;3.00;99.90;;;;;;5106138;28;20457;-80
2020/12/25 03:40:20;;;;;;;17.13;10.97;;;3.00;99.90;;;;;;5106289;28;20515;-78
2020/12/25 03:42:47;;;;;;;12.77;10.90;;;2.90;99.90;;;;;;5104808;28;20514;-78
2020/12/25 03:45:13;;;;;;;18.93;12.50;;;2.90;99.90;;;;;;5105883;28;20454;-76
2020/12/25 03:47:41;;;;;;;13.30;11.93;;;2.90;99.90;;;;;;5102953;28;20959;-75
2020/12/25 03:50:07;;;;;;;15.20;11.50;;;2.80;99.90;;;;;;5104321;28;20968;-78
2020/12/25 03:52:33;;;;;;;13.37;12.03;;;2.80;99.90;;;;;;5108438;28;20839;-75
2020/12/25 03:55:00;;;;;;;11.70;10.70;;;2.70;99.90;;;;;;5108348;28;20588;-79
2020/12/25 03:57:26;;;;;;;12.10;11.00;;;2.70;99.90;;;;;;5103274;28;20459;-80
2020/12/25 03:59:53;;;;;;;12.60;11.60;;;2.60;99.90;;;;;;5104057;28;20485;-80
2020/12/25 04:02:19;;;;;;;12.93;11.83;;;2.60;99.90;;;;;;5100567;28;20471;-77
2020/12/25 04:04:47;;;;;;;14.37;13.07;;;2.50;99.90;;;;;;5104723;28;20471;-74
2020/12/25 04:07:13;;;;;;;13.73;11.93;;;2.50;99.90;;;;;;5104508;28;20448;-78
2020/12/25 04:09:40;;;;;;;14.60;13.00;;;2.40;99.90;;;;;;5099647;28;20545;-80
2020/12/25 04:12:06;;;;;;;13.67;12.50;;;2.40;99.90;;;;;;5102633;28;20465;-80
2020/12/25 04:14:32;;;;;;;13.97;12.53;;;2.30;99.90;;;;;;5100434;28;20452;-81
2020/12/25 04:16:59;;;;;;;12.57;11.47;;;2.30;99.90;;;;;;5106062;28;20877;-76
2020/12/25 04:19:25;;;;;;;21.67;12.30;;;2.30;99.90;;;;;;5103261;28;20486;-76
2020/12/25 04:21:52;;;;;;;12.33;11.03;;;2.20;99.90;;;;;;5104910;28;20464;-77
2020/12/25 04:24:20;;;;;;;25.13;12.10;;;2.20;99.90;;;;;;5107833;28;20456;-75
2020/12/25 04:26:47;;;;;;;15.10;12.90;;;2.10;99.90;;;;;;5102805;28;20554;-78
2020/12/25 04:29:14;;;;;;;14.10;12.60;;;2.10;99.90;;;;;;5101233;28;21081;-79
2020/12/25 04:31:40;;;;;;;16.13;12.87;;;2.10;99.90;;;;;;5106643;28;20982;-77
2020/12/25 04:34:07;;;;;;;14.57;13.17;;;2.00;99.90;;;;;;5106174;28;20532;-75
2020/12/25 04:36:34;;;;;;;18.90;12.50;;;1.90;99.90;;;;;;5103576;28;20530;-77
2020/12/25 04:39:01;;;;;;;14.17;12.67;;;2.00;99.90;;;;;;5101901;28;20572;-75
2020/12/25 04:41:30;;;;;;;13.57;11.87;;;1.90;99.90;;;;;;5104258;28;21119;-76
2020/12/25 04:43:58;;;;;;;17.80;12.80;;;1.90;99.90;;;;;;5105786;28;20820;-77
2020/12/25 04:46:26;;;;;;;19.67;13.10;;;1.90;99.90;;;;;;5103605;28;20555;-77
2020/12/25 04:48:53;;;;;;;21.73;13.47;;;1.80;99.90;;;;;;5107990;28;20472;-75
2020/12/25 04:51:20;;;;;;;18.90;12.70;;;1.70;99.90;;;;;;5104134;28;20525;-76
2020/12/25 04:53:51;;;;;;;15.73;13.93;;;1.70;99.90;;;;;;5100207;28;20469;-78
2020/12/25 04:56:20;;;;;;;18.40;13.40;;;1.60;99.90;;;;;;5102974;28;20517;-78
2020/12/25 04:58:47;;;;;;;15.70;13.10;;;1.50;99.90;;;;;;5105656;28;21053;-76
2020/12/25 05:01:15;;;;;;;14.47;13.27;;;1.50;99.90;;;;;;5103763;28;20485;-76
2020/12/25 05:03:44;;;;;;;14.67;13.30;;;1.40;99.90;;;;;;5102812;28;20517;-78
2020/12/25 05:06:12;;;;;;;15.33;13.90;;;1.40;99.90;;;;;;5096567;28;20460;-79
2020/12/25 05:08:40;;;;;;;20.13;13.50;;;1.30;99.90;;;;;;5102805;28;20464;-77
2020/12/25 05:11:07;;;;;;;23.80;14.10;;;1.10;99.90;;;;;;5100203;28;20555;-77
2020/12/25 05:13:35;;;;;;;15.67;14.30;;;1.10;99.90;;;;;;5105442;28;20461;-79
2020/12/25 05:16:02;;;;;;;20.33;14.37;;;1.00;99.90;;;;;;5103523;28;21130;-78
2020/12/25 05:18:31;;;;;;;22.30;14.70;;;0.90;99.90;;;;;;5104292;28;20465;-79
2020/12/25 05:20:58;;;;;;;15.73;14.53;;;0.80;99.90;;;;;;5100918;28;20489;-75
2020/12/25 05:23:31;;;;;;;15.73;14.53;;;0.90;99.90;;;;;;5100761;28;20556;-78
2020/12/25 05:26:00;;;;;;;14.63;13.60;;;0.90;99.90;;;;;;5100748;28;20499;-78
2020/12/25 05:28:30;;;;;;;15.97;14.50;;;0.90;99.90;;;;;;5096545;28;20465;-76
2020/12/25 05:30:59;;;;;;;17.20;15.63;;;0.90;99.90;;;;;;5100356;28;20807;-79
2020/12/25 05:33:26;;;;;;;17.13;15.50;;;0.90;99.90;;;;;;5100256;28;20461;-77
2020/12/25 05:35:56;;;;;;;16.50;15.30;;;0.80;99.90;;;;;;5101101;28;20486;-79
2020/12/25 05:38:23;;;;;;;16.40;15.10;;;0.80;99.90;;;;;;5101653;28;20489;-77
2020/12/25 05:40:50;;;;;;;17.57;16.20;;;0.80;99.90;;;;;;5097280;28;21070;-78
2020/12/25 05:43:18;;;;;;;17.50;15.90;;;0.80;99.90;;;;;;5106477;28;20479;-78
2020/12/25 05:45:46;;;;;;;17.37;15.63;;;0.80;99.90;;;;;;5103323;28;20468;-80
2020/12/25 05:48:13;;;;;;;29.07;15.90;;;0.90;99.90;;;;;;5104719;28;20546;-77
2020/12/25 05:50:41;;;;;;;18.93;16.93;;;0.90;99.90;;;;;;5094204;28;20458;-76
2020/12/25 05:53:08;;;;;;;16.03;14.73;;;0.90;99.90;;;;;;5101817;28;20464;-77
2020/12/25 05:55:35;;;;;;;16.17;15.00;;;0.90;99.90;;;;;;5104240;28;20465;-76
2020/12/25 05:58:04;;;;;;;16.30;14.73;;;0.90;99.90;;;;;;5100560;28;20529;-76
2020/12/25 06:00:31;;;;;;;16.37;14.50;;;0.90;99.90;;;;;;5100421;28;20589;-76
2020/12/25 06:02:58;;;;;;;16.23;14.97;;;0.90;99.90;;;;;;5104861;28;20486;-76
2020/12/25 06:05:28;;;;;;;17.13;15.93;;;0.90;99.90;;;;;;5101707;28;20466;-80
2020/12/25 06:07:56;;;;;;;17.03;15.47;;;1.00;99.90;;;;;;5094584;28;20547;-76
2020/12/25 06:10:24;;;;;;;17.33;15.60;;;1.10;99.90;;;;;;5099484;28;20522;-76
2020/12/25 06:12:52;;;;;;;27.77;15.13;;;1.10;99.90;;;;;;5105413;28;21218;-78
2020/12/25 06:15:23;;;;;;;22.10;15.23;;;1.00;99.90;;;;;;5100544;28;20457;-76
2020/12/25 06:18:05;;;;;;;17.10;15.47;;;1.00;99.90;;;;;;5101383;28;20461;-77
2020/12/25 06:20:39;;;;;;;19.43;16.70;;;1.00;99.90;;;;;;5099287;28;20485;-79
2020/12/25 06:23:06;;;;;;;16.23;15.07;;;0.90;99.90;;;;;;5100423;28;20559;-80
2020/12/25 06:25:34;;;;;;;17.47;15.60;;;1.00;99.90;;;;;;5096952;28;20528;-77
2020/12/25 06:28:01;;;;;;;20.03;15.50;;;1.00;99.90;;;;;;5106672;28;20473;-79
2020/12/25 06:30:29;;;;;;;19.40;15.97;;;1.10;99.90;;;;;;5100531;28;20461;-78
2020/12/25 06:32:57;;;;;;;21.50;17.73;;;1.10;99.90;;;;;;5095460;28;20519;-78
2020/12/25 06:35:31;;;;;;;18.10;16.60;;;1.10;99.90;;;;;;5098035;28;20491;-77
2020/12/25 06:37:59;;;;;;;18.63;16.63;;;1.10;99.90;;;;;;5102515;28;20476;-79
2020/12/25 06:40:27;;;;;;;16.60;15.17;;;1.10;99.90;;;;;;5102234;28;20565;-78
2020/12/25 06:42:54;;;;;;;16.30;15.10;;;1.00;99.90;;;;;;5103014;28;20472;-78
2020/12/25 06:45:27;;;;;;;23.23;17.70;;;0.90;99.90;;;;;;5099432;28;20458;-78
2020/12/25 06:48:17;;;;;;;17.80;16.30;;;0.80;99.90;;;;;;5106998;28;20470;-80
2020/12/25 06:50:50;;;;;;;21.00;18.83;;;0.70;99.90;;;;;;5098466;28;20461;-77
2020/12/25 06:53:37;;;;;;;20.90;19.00;;;0.70;99.90;;;;;;5100208;28;20461;-77
2020/12/25 06:56:09;;;;;;;19.83;18.23;;;0.60;99.90;;;;;;5099445;28;20515;-80
2020/12/25 06:58:37;;;;;;;20.27;18.30;;;0.60;99.90;;;;;;5102854;28;20461;-79
2020/12/25 07:01:04;;;;;;;20.50;18.90;;;0.60;99.90;;;;;;5102665;28;20488;-77
2020/12/25 07:03:34;;;;;;;20.93;19.10;;;0.60;99.90;;;;;;5109710;28;20457;-74
2020/12/25 07:06:03;;;;;;;20.47;18.73;;;0.60;99.90;;;;;;5101433;28;21063;-76
2020/12/25 07:08:31;;;;;;;21.47;19.13;;;0.60;99.90;;;;;;5099063;28;20532;-77
2020/12/25 07:11:05;;;;;;;23.23;18.47;;;0.60;99.90;;;;;;5103632;28;20460;-78
2020/12/25 07:13:33;;;;;;;18.80;17.60;;;0.70;99.90;;;;;;5096763;28;20976;-78
2020/12/25 07:16:00;;;;;;;18.30;17.20;;;0.80;99.90;;;;;;5102840;28;20490;-77
2020/12/25 07:18:27;;;;;;;19.57;17.23;;;0.90;99.90;;;;;;5106563;28;20478;-80
2020/12/25 07:20:56;;;;;;;20.13;18.70;;;1.00;99.90;;;;;;5102296;28;21050;-77
2020/12/25 07:23:23;;;;;;;20.80;18.97;;;1.10;99.90;;;;;;5098406;28;20458;-77
2020/12/25 07:25:50;;;;;;;19.83;18.10;;;1.10;99.90;;;;;;5099305;28;20505;-79
2020/12/25 07:28:24;;;;;;;18.53;17.23;;;1.20;99.90;;;;;;5102473;28;20522;-75
2020/12/25 07:30:52;;;;;;;21.03;18.17;;;1.20;99.90;;;;;;5098413;28;20456;-78
2020/12/25 07:33:19;;;;;;;18.60;17.30;;;1.30;99.90;;;;;;5105437;28;20453;-77
2020/12/25 07:35:45;;;;;;;26.37;19.00;;;1.30;99.90;;;;;;5102776;28;20485;-75
2020/12/25 07:38:14;;;;;;;18.77;17.30;;;1.40;99.90;;;;;;5104317;28;20464;-79
2020/12/25 07:40:43;;;;;;;18.97;17.60;;;1.50;99.90;;;;;;5096553;28;20485;-76
2020/12/25 07:43:10;;;;;;;20.37;19.10;;;1.50;99.90;;;;;;5101911;28;20463;-77
2020/12/25 07:45:38;;;;;;;23.67;18.80;;;1.60;99.90;;;;;;5100360;28;20473;-78
2020/12/25 07:48:05;;;;;;;19.77;18.27;;;1.60;99.90;;;;;;5105976;28;20503;-78
2020/12/25 07:50:37;;;;;;;19.03;17.53;;;1.60;99.90;;;;;;5102742;28;20899;-76
2020/12/25 07:53:07;;;;;;;19.57;18.27;;;1.60;99.90;;;;;;5100708;28;20467;-78
2020/12/25 07:55:35;;;;;;;19.83;18.50;;;1.60;99.90;;;;;;5099953;28;20465;-75
2020/12/25 07:58:01;;;;;;;21.73;20.13;;;1.70;99.90;;;;;;5100431;28;20468;-78
2020/12/25 08:00:28;;;;;;;19.50;18.20;;;1.70;99.90;;;;;;5104332;28;20883;-77
2020/12/25 08:02:55;;;;;;;19.70;18.30;;;1.60;99.90;;;;;;5105251;28;20464;-78
2020/12/25 08:05:21;;;;;;;19.97;18.10;;;1.60;99.90;;;;;;5104077;28;20465;-76
2020/12/25 08:07:48;;;;;;;19.30;18.10;;;1.50;99.90;;;;;;5103291;28;20537;-79
2020/12/25 08:10:17;;;;;;;24.67;18.80;;;1.40;99.90;;;;;;5101537;28;20469;-77
2020/12/25 08:12:47;;;;;;;20.60;18.67;;;1.30;99.90;;;;;;5098470;28;20462;-79
2020/12/25 08:15:15;;;;;;;19.47;18.10;;;1.20;99.90;;;;;;5103763;28;20461;-77
2020/12/25 08:17:44;;;;;;;20.80;19.27;;;1.20;99.90;;;;;;5104275;28;20463;-75
2020/12/25 08:20:13;;;;;;;22.20;20.50;;;1.10;99.90;;;;;;5103308;28;20488;-79
2020/12/25 08:22:40;;;;;;;19.77;18.57;;;1.00;99.90;;;;;;5099795;28;20457;-77
2020/12/25 08:25:07;;;;;;;20.60;19.30;;;0.90;99.90;;;;;;5096745;28;20518;-77
2020/12/25 08:27:35;;;;;;;21.87;19.60;;;0.80;99.90;;;;;;5103984;28;20822;-80
2020/12/25 08:30:03;;;;;;;22.30;20.40;;;0.80;99.90;;;;;;5099617;28;20487;-79
2020/12/25 08:32:30;;;;;;;20.90;19.60;;;0.80;99.90;;;;;;5099689;28;20468;-78
2020/12/25 08:35:15;;;;;;;22.63;20.40;;;0.80;99.90;;;;;;5099158;28;20467;-79
2020/12/25 08:37:54;;;;;;;21.07;19.47;;;0.90;99.90;;;;;;5098523;28;20562;-80
2020/12/25 08:40:22;;;;;;;22.00;20.50;;;0.90;99.90;;;;;;5099169;28;20599;-76
2020/12/25 08:42:48;;;;;;;22.47;21.03;;;0.90;99.90;;;;;;5096293;28;21026;-75
2020/12/25 08:45:20;;;;;;;23.80;21.97;;;0.90;99.90;;;;;;5103600;28;20974;-79
2020/12/25 08:48:08;;;;;;;22.83;21.43;;;1.00;99.90;;;;;;5095467;28;20554;-79
2020/12/25 08:50:37;;;;;;;20.23;19.03;;;1.10;99.90;;;;;;5096424;28;20753;-80
2020/12/25 08:53:15;;;;;;;21.93;19.97;;;1.10;99.90;;;;;;5102206;28;20480;-76
2020/12/25 08:55:42;;;;;;;20.83;19.50;;;1.10;99.90;;;;;;5103806;28;20457;-76
2020/12/25 08:58:08;;;;;;;20.10;18.87;;;1.10;99.90;;;;;;5106012;28;20475;-77
2020/12/25 09:00:35;;;;;;;21.70;19.40;;;1.20;99.90;;;;;;5105410;28;20496;-79
2020/12/25 09:03:01;;;;;;;21.37;20.00;;;1.30;99.90;;;;;;5097964;28;20809;-78
2020/12/25 09:05:27;;;;;;;20.43;19.23;;;1.40;99.90;;;;;;5103333;28;20453;-78
2020/12/25 09:07:55;;;;;;;20.43;19.03;;;1.60;99.90;;;;;;5104674;28;20462;-79
2020/12/25 09:10:21;;;;;;;19.17;17.87;;;1.90;99.90;;;;;;5097567;28;20460;-76
2020/12/25 09:12:48;;;;;;;19.23;17.73;;;2.10;99.90;;;;;;5110140;28;20461;-77
2020/12/25 09:15:15;;;;;;;19.07;17.57;;;2.40;99.90;;;;;;5104599;28;20457;-77
2020/12/25 09:17:42;;;;;;;18.80;17.40;;;2.60;99.90;;;;;;5100791;28;20499;-77
2020/12/25 09:20:09;;;;;;;17.07;15.83;;;2.80;99.90;;;;;;5099619;28;20866;-74
2020/12/25 09:22:35;;;;;;;16.27;15.30;;;3.00;99.90;;;;;;5103015;28;20532;-79
2020/12/25 09:25:04;;;;;;;17.90;16.50;;;3.20;99.90;;;;;;5106054;28;20466;-75
2020/12/25 09:27:30;;;;;;;17.33;16.07;;;3.20;99.90;;;;;;5102054;28;20457;-75
2020/12/25 09:29:57;;;;;;;17.37;16.00;;;3.40;99.90;;;;;;5099994;28;20469;-77
2020/12/25 09:32:23;;;;;;;17.30;16.00;;;3.40;99.90;;;;;;5101813;28;20469;-75
2020/12/25 09:34:49;;;;;;;17.43;15.50;;;3.40;99.90;;;;;;5103035;28;20458;-78
2020/12/25 09:37:16;;;;;;;16.93;15.70;;;3.40;99.90;;;;;;5101582;28;20831;-77
2020/12/25 09:39:42;;;;;;;15.47;14.17;;;3.50;99.90;;;;;;5105961;28;20889;-78
2020/12/25 09:42:10;;;;;;;16.30;14.70;;;3.40;99.90;;;;;;5100024;28;20469;-75
2020/12/25 09:44:37;;;;;;;15.03;13.80;;;3.50;99.90;;;;;;5102603;28;20519;-76
2020/12/25 09:47:04;;;;;;;14.07;13.20;;;3.60;99.90;;;;;;5104553;28;20954;-77
2020/12/25 09:49:32;;;;;;;16.43;15.20;;;3.60;99.90;;;;;;5105548;28;20469;-76
2020/12/25 09:52:04;;;;;;;13.90;12.90;;;3.60;99.90;;;;;;5104663;28;20928;-79
2020/12/25 09:54:32;;;;;;;12.23;11.63;;;3.60;99.90;;;;;;5099634;28;20469;-80
2020/12/25 09:56:58;;;;;;;14.23;11.37;;;3.70;99.90;;;;;;5098104;28;20507;-79
2020/12/25 09:59:25;;;;;;;11.80;10.70;;;3.80;99.90;;;;;;5100277;28;20474;-76
2020/12/25 10:01:52;;;;;;;11.30;10.13;;;3.80;99.90;;;;;;5104219;28;20463;-74
2020/12/25 10:04:18;;;;;;;10.13;9.63;;;3.90;99.90;;;;;;5108058;28;20457;-79
2020/12/25 10:06:44;;;;;;;11.27;9.73;;;3.90;99.90;;;;;;5096786;28;20454;-80
2020/12/25 10:09:11;;;;;;;16.20;10.10;;;4.00;99.90;;;;;;5104396;28;20511;-78
2020/12/25 10:11:38;;;;;;;10.57;9.73;;;4.10;99.90;;;;;;5095425;28;20466;-78
2020/12/25 10:14:04;;;;;;;10.70;9.73;;;4.20;99.90;;;;;;5102507;28;20458;-79
2020/12/25 10:16:34;;;;;;;11.53;10.63;;;4.20;99.90;;;;;;5102502;28;20484;-75
2020/12/25 10:19:01;;;;;;;11.13;10.13;;;4.20;99.90;;;;;;5094862;28;20458;-79
2020/12/25 10:21:27;;;;;;;11.33;10.20;;;4.20;99.90;;;;;;5096157;28;21033;-75
2020/12/25 10:23:53;;;;;;;13.03;10.27;;;4.20;99.90;;;;;;5088588;28;20465;-75
2020/12/25 10:26:21;;;;;;;11.43;10.47;;;4.30;99.90;;;;;;5098911;28;20517;-79
2020/12/25 10:28:47;;;;;;;10.83;9.93;;;4.20;99.90;;;;;;5098963;28;20473;-76
2020/12/25 10:31:14;;;;;;;12.37;11.07;;;4.30;99.90;;;;;;5093938;28;20472;-77
2020/12/25 10:33:41;;;;;;;13.30;11.30;;;4.40;99.90;;;;;;5090182;28;20466;-78
2020/12/25 10:36:08;;;;;;;12.37;11.10;;;4.40;99.90;;;;;;5081091;28;20609;-75
2020/12/25 10:38:34;;;;;;;10.90;10.10;;;4.40;99.90;;;;;;5099273;28;20456;-75
2020/12/25 10:41:02;;;;;;;10.80;10.00;;;4.40;99.90;;;;;;5098491;28;20479;-80
2020/12/25 10:43:29;;;;;;;10.20;9.70;;;4.50;99.90;;;;;;5091493;28;20476;-76
2020/12/25 10:45:55;;;;;;;11.37;10.67;;;4.40;99.90;;;;;;5091748;28;21006;-78
2020/12/25 10:48:21;;;;;;;16.07;11.67;;;4.40;99.90;;;;;;5099950;28;20462;-76
2020/12/25 10:50:48;;;;;;;12.20;10.90;;;4.30;99.90;;;;;;5094579;28;20555;-78
2020/12/25 10:53:15;;;;;;;10.90;10.30;;;4.20;99.90;;;;;;5093798;28;20575;-78
2020/12/25 10:55:41;;;;;;;11.17;10.37;;;4.10;99.90;;;;;;5093268;28;20453;-76
2020/12/25 10:58:08;;;;;;;11.70;10.73;;;3.90;99.90;;;;;;5096533;28;20488;-75
2020/12/25 11:00:34;;;;;;;19.97;10.67;;;3.80;99.90;;;;;;5099724;28;20577;-79
2020/12/25 11:03:01;;;;;;;11.90;11.00;;;3.80;99.90;;;;;;5101124;28;20453;-77
2020/12/25 11:05:27;;;;;;;18.80;10.90;;;3.90;99.90;;;;;;5097129;28;20473;-76
2020/12/25 11:07:57;;;;;;;11.57;10.67;;;3.90;99.90;;;;;;5097529;28;20458;-78
2020/12/25 11:10:24;;;;;;;11.97;11.17;;;4.00;99.90;;;;;;5099653;28;20469;-80
2020/12/25 11:12:51;;;;;;;12.17;11.43;;;4.10;99.90;;;;;;5102148;28;20990;-77
2020/12/25 11:15:17;;;;;;;21.70;11.90;;;4.20;99.90;;;;;;5093407;28;20536;-77
2020/12/25 11:17:43;;;;;;;13.50;12.23;;;4.30;99.90;;;;;;5094835;28;20469;-77
2020/12/25 11:20:11;;;;;;;24.13;11.53;;;4.40;99.90;;;;;;5089932;28;20486;-77
2020/12/25 11:22:37;;;;;;;12.47;11.20;;;4.40;99.90;;;;;;5091246;28;20461;-78
2020/12/25 11:25:04;;;;;;;13.63;11.70;;;4.60;99.90;;;;;;5090119;28;20832;-79
2020/12/25 11:27:32;;;;;;;14.27;12.87;;;4.60;99.90;;;;;;5095184;28;20801;-79
2020/12/25 11:29:58;;;;;;;12.87;11.67;;;4.60;99.90;;;;;;5099572;28;20488;-79
2020/12/25 11:32:25;;;;;;;11.90;10.90;;;4.60;99.90;;;;;;5092550;28;20466;-77
2020/12/25 11:34:51;;;;;;;12.50;11.37;;;4.50;99.90;;;;;;5093885;28;20457;-78
2020/12/25 11:37:17;;;;;;;12.47;11.47;;;4.60;99.90;;;;;;5095118;28;21031;-77
2020/12/25 11:39:43;;;;;;;13.53;10.97;;;4.60;99.90;;;;;;5087815;28;20477;-76
2020/12/25 11:42:11;;;;;;;12.20;10.90;;;4.80;99.90;;;;;;5096009;28;20483;-79
2020/12/25 11:44:38;;;;;;;11.87;10.70;;;5.20;99.90;;;;;;5097580;28;20483;-77
2020/12/25 11:47:05;;;;;;;13.17;11.90;;;5.90;99.90;;;;;;5093172;28;20466;-78
2020/12/25 11:49:31;;;;;;;12.63;11.50;;;6.40;99.90;;;;;;5097049;28;20462;-78
2020/12/25 11:51:57;;;;;;;12.07;11.23;;;6.90;99.90;;;;;;5097108;28;20463;-76
2020/12/25 11:54:24;;;;;;;10.80;10.30;;;7.00;99.90;;;;;;5099116;27;20461;-76
2020/12/25 11:56:52;;;;;;;11.40;10.63;;;7.20;99.90;;;;;;5105141;27;20479;-74
2020/12/25 11:59:19;;;;;;;11.30;10.40;;;6.80;99.90;;;;;;5107794;27;20507;-78
2020/12/25 12:01:47;;;;;;;12.97;12.00;;;6.10;99.90;;;;;;5106099;27;20537;-77
2020/12/25 12:04:14;;;;;;;12.03;11.20;;;5.90;99.90;;;;;;5105792;27;20542;-75
2020/12/25 12:06:40;;;;;;;12.73;10.50;;;6.20;99.90;;;;;;5100501;27;20544;-77
2020/12/25 12:09:14;;;;;;;11.53;10.83;;;6.70;99.90;;;;;;5102537;27;20752;-77
2020/12/25 12:11:45;;;;;;;11.53;10.50;;;7.00;99.90;;;;;;5104492;27;20468;-75
2020/12/25 12:14:12;;;;;;;12.20;11.07;;;7.20;99.90;;;;;;5102980;27;20463;-77
2020/12/25 12:16:39;;;;;;;10.83;9.93;;;7.20;99.90;;;;;;5101196;27;21040;-74
2020/12/25 12:19:05;;;;;;;11.63;10.10;;;7.30;99.90;;;;;;5092802;27;20467;-75
2020/12/25 12:21:32;;;;;;;13.90;11.00;;;7.40;99.90;;;;;;5087350;27;20757;-77
2020/12/25 12:23:58;;;;;;;10.60;10.00;;;7.50;99.90;;;;;;5103154;27;20821;-76
2020/12/25 12:26:35;;;;;;;9.30;8.60;;;7.70;99.90;;;;;;5107069;27;20539;-74
2020/12/25 12:29:01;;;;;;;16.63;10.70;;;7.60;99.90;;;;;;5108336;27;20488;-76
2020/12/25 12:31:28;;;;;;;10.80;9.90;;;7.00;99.90;;;;;;5111396;27;21021;-76
2020/12/25 12:33:55;;;;;;;11.33;10.40;;;6.90;99.90;;;;;;5098914;28;20509;-79
2020/12/25 12:36:21;;;;;;;11.07;10.20;;;6.80;99.90;;;;;;5089484;27;20488;-77
2020/12/25 12:38:47;;;;;;;9.40;9.00;;;7.00;99.90;;;;;;5099082;28;20455;-75
2020/12/25 12:41:14;;;;;;;10.90;10.00;;;7.30;99.90;;;;;;5101316;28;20489;-78